createdAt,value
2023-01-17T00:01:21.264Z,1.47
2023-01-17T00:04:08.942Z,1.10
2023-01-17T00:06:55.492Z,1.07
2023-01-17T00:09:41.620Z,1.40
2023-01-17T00:12:09.389Z,1.70
2023-01-17T00:14:38.570Z,1.63
2023-01-17T00:17:06.387Z,1.83
2023-01-17T00:19:51.665Z,1.40
2023-01-17T00:22:41.917Z,1.20
2023-01-17T00:25:29.846Z,1.23
2023-01-17T00:27:56.441Z,1.10
2023-01-17T00:30:23.208Z,1.30
2023-01-17T00:32:50.835Z,1.10
2023-01-17T00:35:17.977Z,1.70
2023-01-17T00:37:45.833Z,1.83
2023-01-17T00:40:12.653Z,1.83
2023-01-17T00:42:39.162Z,2.20
2023-01-17T00:45:25.107Z,1.83
2023-01-17T00:48:10.222Z,1.90
2023-01-17T00:50:55.448Z,2.00
2023-01-17T00:53:41.739Z,2.00
2023-01-17T00:56:27.040Z,1.83
2023-01-17T00:59:13.208Z,1.43
2023-01-17T01:01:58.808Z,1.60
2023-01-17T01:04:45.334Z,1.67
2023-01-17T01:07:30.863Z,1.60
2023-01-17T01:10:17.436Z,1.70
2023-01-17T01:13:02.826Z,1.30
2023-01-17T01:15:48.244Z,1.50
2023-01-17T01:18:33.246Z,1.30
2023-01-17T01:21:21.775Z,1.47
2023-01-17T01:24:06.590Z,1.20
2023-01-17T01:26:53.212Z,1.30
2023-01-17T01:29:38.239Z,1.20
2023-01-17T01:32:23.972Z,1.67
2023-01-17T01:34:51.529Z,1.50
2023-01-17T01:37:19.294Z,1.20
2023-01-17T01:39:46.872Z,1.37
2023-01-17T01:42:16.846Z,1.37
2023-01-17T01:44:47.614Z,1.20
2023-01-17T01:47:21.796Z,1.30
2023-01-17T01:49:53.105Z,1.53
2023-01-17T01:52:23.151Z,1.27
2023-01-17T01:54:55.258Z,0.90
2023-01-17T01:57:30.543Z,1.30
2023-01-17T02:00:03.298Z,1.10
2023-01-17T02:02:32.229Z,1.50
2023-01-17T02:05:03.684Z,1.17
2023-01-17T02:07:38.063Z,1.33
2023-01-17T02:10:06.357Z,1.20
2023-01-17T02:12:36.477Z,1.30
2023-01-17T02:15:07.836Z,1.50
2023-01-17T02:17:46.652Z,1.17
2023-01-17T02:20:49.769Z,0.97
2023-01-17T02:23:41.332Z,1.70
2023-01-17T02:26:46.634Z,1.10
2023-01-17T02:29:40.241Z,1.50
2023-01-17T02:32:22.659Z,1.10
2023-01-17T02:34:59.138Z,1.10
2023-01-17T02:37:34.826Z,1.17
2023-01-17T02:40:13.763Z,1.03
2023-01-17T02:42:44.602Z,1.13
2023-01-17T02:45:16.943Z,1.33
2023-01-17T02:47:45.856Z,1.20
2023-01-17T02:50:17.141Z,1.30
2023-01-17T02:53:02.697Z,1.17
2023-01-17T02:55:43.006Z,1.00
2023-01-17T02:58:26.061Z,1.30
2023-01-17T03:01:03.814Z,1.30
2023-01-17T03:03:38.912Z,1.67
2023-01-17T03:06:13.348Z,1.20
2023-01-17T03:08:44.503Z,1.50
2023-01-17T03:11:13.365Z,1.30
2023-01-17T03:13:41.217Z,1.10
2023-01-17T03:16:13.075Z,1.00
2023-01-17T03:18:44.583Z,1.10
2023-01-17T03:21:12.280Z,1.20
2023-01-17T03:23:40.367Z,0.90
2023-01-17T03:26:07.954Z,1.20
2023-01-17T03:28:38.619Z,1.10
2023-01-17T03:31:06.703Z,2.43
2023-01-17T03:33:34.705Z,1.37
2023-01-17T03:36:04.885Z,1.20
2023-01-17T03:38:32.955Z,1.30
2023-01-17T03:41:00.600Z,1.10
2023-01-17T03:43:28.629Z,1.10
2023-01-17T03:46:02.977Z,1.40
2023-01-17T03:48:31.005Z,1.47
2023-01-17T03:50:59.666Z,1.27
2023-01-17T03:53:28.946Z,1.10
2023-01-17T03:55:57.831Z,1.20
2023-01-17T03:58:26.396Z,1.27
2023-01-17T04:00:54.178Z,1.30
2023-01-17T04:03:22.092Z,1.53
2023-01-17T04:05:49.642Z,1.40
2023-01-17T04:08:17.441Z,1.53
2023-01-17T04:10:46.412Z,1.30
2023-01-17T04:13:14.888Z,1.70
2023-01-17T04:15:43.483Z,1.23
2023-01-17T04:18:13.384Z,1.20
2023-01-17T04:20:41.671Z,1.80
2023-01-17T04:23:09.273Z,1.57
2023-01-17T04:25:37.821Z,1.50
2023-01-17T04:28:07.002Z,1.30
2023-01-17T04:30:34.911Z,1.40
2023-01-17T04:33:02.675Z,1.20
2023-01-17T04:35:31.192Z,1.37
2023-01-17T04:37:59.005Z,1.93
2023-01-17T04:40:26.685Z,1.40
2023-01-17T04:42:54.983Z,1.70
2023-01-17T04:45:24.186Z,1.63
2023-01-17T04:47:54.899Z,1.30
2023-01-17T04:50:22.820Z,1.47
2023-01-17T04:52:51.344Z,1.63
2023-01-17T04:55:18.950Z,1.67
2023-01-17T04:57:46.534Z,1.70
2023-01-17T05:00:16.413Z,1.47
2023-01-17T05:02:45.691Z,1.60
2023-01-17T05:05:16.567Z,2.00
2023-01-17T05:07:46.693Z,1.43
2023-01-17T05:10:14.329Z,1.63
2023-01-17T05:12:41.901Z,1.93
2023-01-17T05:15:10.402Z,1.80
2023-01-17T05:17:38.557Z,1.90
2023-01-17T05:20:21.914Z,1.50
2023-01-17T05:22:55.445Z,1.50
2023-01-17T05:25:24.752Z,1.60
2023-01-17T05:27:52.697Z,2.00
2023-01-17T05:30:21.790Z,2.20
2023-01-17T05:32:53.133Z,2.00
2023-01-17T05:35:25.870Z,2.30
2023-01-17T05:37:53.809Z,2.50
2023-01-17T05:40:24.713Z,2.90
2023-01-17T05:42:59.456Z,2.40
2023-01-17T05:45:29.666Z,2.30
2023-01-17T05:47:59.206Z,1.80
2023-01-17T05:50:33.370Z,3.37
2023-01-17T05:53:03.615Z,3.70
2023-01-17T05:55:32.709Z,3.67
2023-01-17T05:58:02.157Z,3.17
2023-01-17T06:00:33.884Z,4.30
2023-01-17T06:03:02.501Z,4.07
2023-01-17T06:05:32.522Z,4.50
2023-01-17T06:08:00.593Z,5.37
2023-01-17T06:10:30.045Z,4.90
2023-01-17T06:13:04.806Z,3.30
2023-01-17T06:15:33.140Z,11.63
2023-01-17T06:18:05.664Z,12.30
2023-01-17T06:20:35.024Z,3.10
2023-01-17T06:23:04.539Z,3.97
2023-01-17T06:25:37.861Z,12.03
2023-01-17T06:28:06.052Z,3.60
2023-01-17T06:30:34.308Z,2.70
2023-01-17T06:33:06.314Z,3.00
2023-01-17T06:35:37.514Z,2.30
2023-01-17T06:38:05.295Z,2.97
2023-01-17T06:40:33.189Z,3.53
2023-01-17T06:43:02.607Z,4.67
2023-01-17T06:45:34.736Z,4.40
2023-01-17T06:48:15.073Z,4.00
2023-01-17T06:50:44.399Z,8.20
2023-01-17T06:53:11.970Z,3.70
2023-01-17T06:55:43.571Z,4.00
2023-01-17T06:58:11.413Z,3.27
2023-01-17T07:00:40.936Z,3.20
2023-01-17T07:03:16.647Z,3.17
2023-01-17T07:05:45.509Z,5.20
2023-01-17T07:08:13.217Z,2.90
2023-01-17T07:10:41.150Z,2.57
2023-01-17T07:13:09.442Z,4.20
2023-01-17T07:15:37.147Z,2.57
2023-01-17T07:18:05.462Z,3.30
2023-01-17T07:20:33.446Z,3.50
2023-01-17T07:23:03.344Z,3.13
2023-01-17T07:25:31.051Z,2.80
2023-01-17T07:27:58.893Z,6.67
2023-01-17T07:30:26.889Z,3.87
2023-01-17T07:32:55.290Z,2.80
2023-01-17T07:35:26.503Z,3.30
2023-01-17T07:37:56.311Z,3.30
2023-01-17T07:40:25.721Z,3.70
2023-01-17T07:42:53.667Z,3.37
2023-01-17T07:45:21.868Z,3.23
2023-01-17T07:47:49.994Z,4.27
2023-01-17T07:50:17.751Z,2.60
2023-01-17T07:52:50.085Z,2.93
2023-01-17T07:55:18.177Z,2.50
2023-01-17T07:57:51.531Z,3.50
2023-01-17T08:00:19.997Z,2.73
2023-01-17T08:02:47.826Z,2.60
2023-01-17T08:05:15.791Z,3.10
2023-01-17T08:07:43.378Z,2.53
2023-01-17T08:10:17.807Z,2.37
2023-01-17T08:12:46.597Z,2.67
2023-01-17T08:15:16.217Z,3.27
2023-01-17T08:17:48.285Z,3.10
2023-01-17T08:20:16.370Z,3.20
2023-01-17T08:22:43.893Z,3.23
2023-01-17T08:25:12.465Z,3.23
2023-01-17T08:27:40.365Z,3.73
2023-01-17T08:30:09.524Z,2.97
2023-01-17T08:32:40.725Z,3.07
2023-01-17T08:35:09.288Z,2.87
2023-01-17T08:37:38.252Z,3.00
2023-01-17T08:40:07.849Z,2.67
2023-01-17T08:42:39.265Z,2.47
2023-01-17T08:45:08.704Z,2.50
2023-01-17T08:47:36.516Z,2.77
2023-01-17T08:50:07.163Z,2.60
2023-01-17T08:52:36.068Z,2.47
2023-01-17T08:55:05.717Z,2.53
2023-01-17T08:57:33.588Z,2.80
2023-01-17T09:00:01.408Z,2.20
2023-01-17T09:02:29.150Z,2.23
2023-01-17T09:04:56.676Z,2.30
2023-01-17T09:07:26.888Z,2.77
2023-01-17T09:09:54.545Z,2.80
2023-01-17T09:12:22.632Z,2.50
2023-01-17T09:14:50.262Z,3.00
2023-01-17T09:17:17.926Z,1.90
2023-01-17T09:19:47.853Z,2.10
2023-01-17T09:22:15.769Z,2.20
2023-01-17T09:24:44.725Z,2.80
2023-01-17T09:27:12.567Z,2.80
2023-01-17T09:29:40.136Z,2.77
2023-01-17T09:32:07.772Z,2.80
2023-01-17T09:34:35.384Z,2.70
2023-01-17T09:37:02.974Z,3.00
2023-01-17T09:39:30.579Z,2.10
2023-01-17T09:42:08.185Z,2.20
2023-01-17T09:44:42.713Z,2.40
2023-01-17T09:47:18.098Z,2.33
2023-01-17T09:49:47.863Z,2.63
2023-01-17T09:52:18.567Z,3.00
2023-01-17T09:54:48.017Z,2.17
2023-01-17T09:57:32.608Z,2.63
2023-01-17T10:00:12.257Z,2.60
2023-01-17T10:02:50.545Z,2.40
2023-01-17T10:05:37.867Z,1.87
2023-01-17T10:08:18.306Z,2.50
2023-01-17T10:10:57.709Z,1.90
2023-01-17T10:13:39.221Z,1.80
2023-01-17T10:16:22.554Z,2.27
2023-01-17T10:19:07.299Z,2.00
2023-01-17T10:21:49.419Z,2.10
2023-01-17T10:24:36.703Z,1.80
2023-01-17T10:27:10.915Z,1.60
2023-01-17T10:29:41.132Z,1.70
2023-01-17T10:32:13.621Z,1.70
2023-01-17T10:34:47.226Z,1.80
2023-01-17T10:37:20.168Z,1.90
2023-01-17T10:39:50.185Z,1.73
2023-01-17T10:42:22.837Z,1.87
2023-01-17T10:45:00.457Z,1.80
2023-01-17T10:47:33.487Z,1.70
2023-01-17T10:50:05.070Z,2.90
2023-01-17T10:52:45.246Z,1.60
2023-01-17T10:55:30.152Z,1.83
2023-01-17T10:57:58.885Z,1.37
2023-01-17T11:00:44.045Z,1.40
2023-01-17T11:03:13.223Z,1.13
2023-01-17T11:05:42.805Z,1.50
2023-01-17T11:08:13.617Z,1.50
2023-01-17T11:10:44.912Z,1.50
2023-01-17T11:13:26.070Z,1.90
2023-01-17T11:15:58.804Z,1.80
2023-01-17T11:18:29.641Z,2.00
2023-01-17T11:21:11.283Z,1.97
2023-01-17T11:23:42.084Z,1.90
2023-01-17T11:26:15.031Z,1.70
2023-01-17T11:28:42.783Z,1.63
2023-01-17T11:31:27.420Z,1.83
2023-01-17T11:34:14.861Z,1.63
2023-01-17T11:36:42.721Z,1.77
2023-01-17T11:39:25.866Z,1.80
2023-01-17T11:41:53.807Z,1.70
2023-01-17T11:44:28.262Z,1.50
2023-01-17T11:47:17.164Z,1.67
2023-01-17T11:49:46.718Z,1.80
2023-01-17T11:52:23.200Z,1.43
2023-01-17T11:54:53.568Z,1.33
2023-01-17T11:57:25.027Z,2.77
2023-01-17T12:00:04.663Z,1.67
2023-01-17T12:02:45.779Z,1.40
2023-01-17T12:05:31.831Z,1.20
2023-01-17T12:08:09.664Z,1.53
2023-01-17T12:10:46.600Z,1.53
2023-01-17T12:13:43.169Z,1.50
2023-01-17T12:16:33.147Z,1.57
2023-01-17T12:19:32.191Z,1.67
2023-01-17T12:22:16.181Z,1.87
2023-01-17T12:25:08.896Z,1.70
2023-01-17T12:27:49.381Z,1.53
2023-01-17T12:30:30.579Z,1.30
2023-01-17T12:33:19.009Z,1.53
2023-01-17T12:35:53.025Z,1.30
2023-01-17T12:38:32.917Z,1.20
2023-01-17T12:41:05.885Z,1.10
2023-01-17T12:43:37.126Z,1.47
2023-01-17T12:46:12.689Z,1.20
2023-01-17T12:48:40.288Z,1.40
2023-01-17T12:51:16.539Z,1.03
2023-01-17T12:53:51.797Z,1.33
2023-01-17T12:56:27.615Z,1.60
2023-01-17T12:59:01.966Z,1.50
2023-01-17T13:01:32.113Z,1.47
2023-01-17T13:04:10.008Z,1.60
2023-01-17T13:06:50.855Z,1.40
2023-01-17T13:09:22.638Z,1.60
2023-01-17T13:11:54.726Z,1.20
2023-01-17T13:14:22.380Z,1.37
2023-01-17T13:16:58.023Z,1.40
2023-01-17T13:19:34.576Z,1.40
2023-01-17T13:22:08.024Z,1.50
2023-01-17T13:24:45.242Z,1.50
2023-01-17T13:27:39.911Z,1.33
2023-01-17T13:30:22.023Z,1.30
2023-01-17T13:33:02.912Z,1.30
2023-01-17T13:35:41.922Z,1.30
2023-01-17T13:38:30.410Z,1.10
2023-01-17T13:41:04.617Z,1.40
2023-01-17T13:43:36.746Z,1.60
2023-01-17T13:46:05.015Z,1.43
2023-01-17T13:48:34.544Z,1.60
2023-01-17T13:51:03.732Z,1.60
2023-01-17T13:53:57.176Z,1.03
2023-01-17T13:56:33.614Z,1.50
2023-01-17T13:59:30.923Z,1.20
2023-01-17T14:01:58.769Z,1.40
2023-01-17T14:05:15.013Z,1.40
2023-01-17T14:07:48.188Z,1.50
2023-01-17T14:10:33.161Z,1.50
2023-01-17T14:13:01.602Z,1.30
2023-01-17T14:15:32.445Z,1.50
2023-01-17T14:18:03.204Z,1.50
2023-01-17T14:20:52.723Z,1.43
2023-01-17T14:23:46.799Z,1.90
2023-01-17T14:26:44.303Z,1.50
2023-01-17T14:29:49.244Z,1.70
2023-01-17T14:32:19.690Z,1.40
2023-01-17T14:34:49.418Z,1.27
2023-01-17T14:37:22.171Z,1.33
2023-01-17T14:39:51.488Z,1.37
2023-01-17T14:42:23.619Z,1.37
2023-01-17T14:44:54.052Z,2.20
2023-01-17T14:47:22.401Z,1.70
2023-01-17T14:49:49.985Z,1.77
2023-01-17T14:52:19.400Z,1.50
2023-01-17T14:54:53.401Z,1.60
2023-01-17T14:57:27.817Z,1.70
2023-01-17T15:00:18.413Z,1.67
2023-01-17T15:02:47.452Z,1.20
2023-01-17T15:05:19.467Z,1.80
2023-01-17T15:07:52.987Z,2.07
2023-01-17T15:10:24.722Z,1.63
2023-01-17T15:12:56.197Z,2.03
2023-01-17T15:15:30.139Z,1.80
2023-01-17T15:18:19.270Z,1.50
2023-01-17T15:20:52.640Z,1.60
2023-01-17T15:23:23.303Z,1.33
2023-01-17T15:25:53.382Z,1.40
2023-01-17T15:28:22.393Z,1.33
2023-01-17T15:31:11.336Z,1.70
2023-01-17T15:33:41.318Z,1.80
2023-01-17T15:36:12.663Z,1.37
2023-01-17T15:38:56.405Z,2.03
2023-01-17T15:41:27.331Z,1.30
2023-01-17T15:43:58.523Z,1.60
2023-01-17T15:46:31.522Z,1.57
2023-01-17T15:49:17.512Z,1.80
2023-01-17T15:51:51.604Z,2.00
2023-01-17T15:54:41.776Z,1.63
2023-01-17T15:57:23.396Z,1.60
2023-01-17T15:59:56.528Z,2.00
2023-01-17T16:02:42.965Z,1.67
2023-01-17T16:05:33.441Z,1.60
2023-01-17T16:08:32.576Z,1.90
2023-01-17T16:11:02.927Z,1.77
2023-01-17T16:13:32.633Z,1.33
2023-01-17T16:16:18.097Z,2.03
2023-01-17T16:18:47.664Z,1.80
2023-01-17T16:21:26.840Z,1.60
2023-01-17T16:23:55.168Z,1.87
2023-01-17T16:26:23.236Z,1.40
2023-01-17T16:28:51.460Z,1.87
2023-01-17T16:31:20.526Z,2.20
2023-01-17T16:33:50.452Z,1.90
2023-01-17T16:36:20.759Z,1.87
2023-01-17T16:38:50.758Z,2.00
2023-01-17T16:41:18.920Z,1.60
2023-01-17T16:43:50.214Z,2.00
2023-01-17T16:46:23.542Z,2.10
2023-01-17T16:48:51.392Z,2.10
2023-01-17T16:51:19.321Z,2.77
2023-01-17T16:53:47.007Z,2.13
2023-01-17T16:56:17.779Z,2.10
2023-01-17T16:58:45.457Z,2.50
2023-01-17T17:01:16.341Z,3.20
2023-01-17T17:03:46.125Z,2.23
2023-01-17T17:06:15.159Z,2.10
2023-01-17T17:08:45.165Z,2.67
2023-01-17T17:11:15.611Z,2.23
2023-01-17T17:13:44.386Z,2.33
2023-01-17T17:16:17.478Z,2.40
2023-01-17T17:18:48.493Z,3.00
2023-01-17T17:21:16.007Z,2.90
2023-01-17T17:23:44.010Z,2.60
2023-01-17T17:26:11.567Z,2.87
2023-01-17T17:28:39.091Z,2.53
2023-01-17T17:31:10.297Z,2.80
2023-01-17T17:33:38.652Z,2.70
2023-01-17T17:36:10.076Z,3.40
2023-01-17T17:38:39.188Z,2.73
2023-01-17T17:41:09.545Z,2.77
2023-01-17T17:43:41.302Z,2.87
2023-01-17T17:46:09.108Z,2.33
2023-01-17T17:48:37.391Z,2.63
2023-01-17T17:51:07.039Z,2.10
2023-01-17T17:53:34.723Z,2.57
2023-01-17T17:56:06.676Z,2.37
2023-01-17T17:58:36.268Z,2.30
2023-01-17T18:01:05.685Z,2.43
2023-01-17T18:03:33.695Z,3.13
2023-01-17T18:06:03.190Z,2.60
2023-01-17T18:08:32.692Z,2.50
2023-01-17T18:11:03.283Z,2.57
2023-01-17T18:13:32.973Z,2.57
2023-01-17T18:16:03.909Z,2.70
2023-01-17T18:18:32.503Z,2.70
2023-01-17T18:21:12.291Z,2.53
2023-01-17T18:23:43.280Z,2.30
2023-01-17T18:26:17.531Z,2.80
2023-01-17T18:28:46.100Z,2.80
2023-01-17T18:31:14.176Z,2.57
2023-01-17T18:33:42.636Z,2.03
2023-01-17T18:36:12.453Z,2.80
2023-01-17T18:38:44.002Z,2.90
2023-01-17T18:41:14.120Z,2.70
2023-01-17T18:43:42.361Z,2.50
2023-01-17T18:46:12.514Z,3.70
2023-01-17T18:48:41.353Z,2.67
2023-01-17T18:51:10.734Z,2.60
2023-01-17T18:53:39.393Z,2.77
2023-01-17T18:56:10.883Z,2.97
2023-01-17T18:58:40.867Z,2.90
2023-01-17T19:01:10.370Z,2.83
2023-01-17T19:03:39.843Z,2.90
2023-01-17T19:06:26.901Z,3.10
2023-01-17T19:08:54.694Z,2.77
2023-01-17T19:11:25.665Z,3.07
2023-01-17T19:13:53.783Z,3.00
2023-01-17T19:16:25.044Z,2.80
2023-01-17T19:18:53.377Z,2.87
2023-01-17T19:21:23.624Z,3.30
2023-01-17T19:23:51.391Z,3.17
2023-01-17T19:26:22.841Z,2.93
2023-01-17T19:28:51.912Z,3.70
2023-01-17T19:31:22.100Z,2.70
2023-01-17T19:33:51.099Z,2.70
2023-01-17T19:36:23.288Z,3.20
2023-01-17T19:39:03.447Z,3.43
2023-01-17T19:41:32.643Z,3.30
2023-01-17T19:44:03.539Z,3.60
2023-01-17T19:46:31.281Z,3.80
2023-01-17T19:48:59.580Z,3.20
2023-01-17T19:51:28.671Z,3.03
2023-01-17T19:53:58.831Z,2.67
2023-01-17T19:56:27.429Z,3.23
2023-01-17T19:58:57.062Z,3.57
2023-01-17T20:01:30.631Z,3.00
2023-01-17T20:03:58.914Z,3.40
2023-01-17T20:06:29.179Z,3.10
2023-01-17T20:08:57.001Z,3.47
2023-01-17T20:11:26.510Z,3.20
2023-01-17T20:13:55.521Z,3.40
2023-01-17T20:16:25.098Z,3.60
2023-01-17T20:18:54.293Z,3.20
2023-01-17T20:21:23.490Z,3.43
2023-01-17T20:23:53.143Z,3.60
2023-01-17T20:26:23.142Z,3.30
2023-01-17T20:28:52.355Z,3.10
2023-01-17T20:31:21.647Z,3.93
2023-01-17T20:33:50.615Z,3.57
2023-01-17T20:36:21.588Z,4.20
2023-01-17T20:38:49.344Z,3.37
2023-01-17T20:41:19.269Z,3.47
2023-01-17T20:43:48.486Z,3.47
2023-01-17T20:46:16.834Z,3.50
2023-01-17T20:48:45.609Z,2.50
2023-01-17T20:51:14.500Z,3.43
2023-01-17T20:53:45.216Z,2.97
2023-01-17T20:56:15.265Z,3.00
2023-01-17T20:58:43.812Z,3.20
2023-01-17T21:01:13.775Z,2.67
2023-01-17T21:03:41.468Z,3.23
2023-01-17T21:06:10.616Z,3.43
2023-01-17T21:08:39.547Z,3.50
2023-01-17T21:11:10.420Z,3.40
2023-01-17T21:13:38.013Z,2.90
2023-01-17T21:16:06.995Z,3.20
2023-01-17T21:18:34.595Z,3.00
2023-01-17T21:21:07.276Z,3.07
2023-01-17T21:23:35.102Z,2.43
2023-01-17T21:26:02.820Z,3.07
2023-01-17T21:28:34.791Z,2.87
2023-01-17T21:31:18.026Z,2.83
2023-01-17T21:33:46.815Z,2.67
2023-01-17T21:36:16.547Z,2.90
2023-01-17T21:38:52.119Z,3.20
2023-01-17T21:41:21.788Z,2.80
2023-01-17T21:43:55.011Z,3.23
2023-01-17T21:46:22.562Z,2.43
2023-01-17T21:48:50.232Z,2.90
2023-01-17T21:51:19.427Z,2.93
2023-01-17T21:53:47.046Z,2.73
2023-01-17T21:56:33.316Z,3.00
2023-01-17T21:59:02.309Z,2.80
2023-01-17T22:01:33.143Z,2.90
2023-01-17T22:04:04.115Z,2.63
2023-01-17T22:06:34.234Z,2.70
2023-01-17T22:09:02.070Z,3.10
2023-01-17T22:11:30.428Z,2.30
2023-01-17T22:13:59.452Z,3.17
2023-01-17T22:16:31.527Z,2.93
2023-01-17T22:19:01.824Z,3.00
2023-01-17T22:21:29.790Z,2.93
2023-01-17T22:23:59.930Z,2.47
2023-01-17T22:26:29.446Z,3.47
2023-01-17T22:29:00.466Z,2.67
2023-01-17T22:31:29.899Z,2.53
2023-01-17T22:33:59.670Z,2.40
2023-01-17T22:36:28.390Z,2.63
2023-01-17T22:38:56.849Z,2.67
2023-01-17T22:41:29.318Z,2.77
2023-01-17T22:43:59.048Z,2.83
2023-01-17T22:46:30.024Z,2.67
2023-01-17T22:48:58.748Z,2.90
2023-01-17T22:51:28.058Z,3.40
2023-01-17T22:53:58.306Z,3.20
2023-01-17T22:56:30.247Z,2.60
2023-01-17T22:59:00.938Z,2.93
2023-01-17T23:01:32.682Z,3.00
2023-01-17T23:04:02.724Z,2.97
2023-01-17T23:06:32.033Z,2.60
2023-01-17T23:09:01.399Z,3.17
2023-01-17T23:11:41.049Z,3.00
2023-01-17T23:14:12.407Z,3.17
2023-01-17T23:17:00.903Z,3.50
2023-01-17T23:19:31.753Z,3.00
2023-01-17T23:22:18.963Z,3.07
2023-01-17T23:24:49.795Z,3.30
2023-01-17T23:27:37.660Z,3.23
2023-01-17T23:30:07.110Z,2.77
2023-01-17T23:32:36.310Z,2.83
2023-01-17T23:35:04.242Z,2.83
2023-01-17T23:37:46.285Z,3.47
2023-01-17T23:40:14.379Z,2.30
2023-01-17T23:42:59.793Z,3.30
2023-01-17T23:45:27.897Z,2.90
2023-01-17T23:47:56.850Z,2.67
2023-01-17T23:50:24.642Z,3.03
2023-01-17T23:52:52.304Z,2.53
2023-01-17T23:55:20.086Z,2.50
2023-01-17T23:57:49.738Z,3.00
